Latest Weather Observations for Melbourne Airport

IDV60901

Issued at 11:21 am EDT Thursday 23 February 2017 (issued every 10 minutes, with the page automatically refreshed every 10 minutes)

About weather observations | Map of Melbourne area stations | Latest observations for Melbourne area | Other Formats
Station Details ID: 086282 Name: MELBOURNE AIRPORT Lat: -37.67 Lon: 144.83 Height: 113.4 m
Data from the previous 72 hours. | See also: Recent months at Melbourne Airport
Date/Time
EDT
Temp
°C
App
Temp
°C
Dew
Point
°C
Rel
Hum
%
Delta-T
°C
Wind Press
QNH
hPa
Press
MSL
hPa
Rain since
9am
mm
Dir  Spd
km/h
Gust
km/h
Spd
kts
Gust
kts
23/11:00am 20.9 18.4 10.9 52 5.5 SSW 15 26 8 14 1018.6 1018.2 0.0
23/10:30am 20.3 16.4 10.8 54 5.2 WSW 22 30 12 16 1018.4 1018.0 0.0
23/10:00am 20.0 16.4 10.4 54 5.2 SW 20 28 11 15 1018.1 1017.7 0.0
23/09:30am 20.3 16.8 10.8 54 5.2 SW 20 28 11 15 1017.6 1017.3 0.0
23/09:00am 19.5 15.5 10.5 56 4.9 SW 22 30 12 16 1017.3 1017.0 0.0
23/08:30am 18.1 15.8 10.5 61 4.1 W 13 15 7 8 1016.9 1016.6 0.0
23/08:00am 15.5 13.4 11.0 74 2.4 W 13 17 7 9 1016.4 1016.1 0.0
23/07:30am 14.3 13.4 11.3 82 1.6 N 7 9 4 5 1015.8 1015.4 0.0
23/07:00am 12.8 11.4 10.9 88 1.0 N 9 11 5 6 1015.2 1014.8 0.0
23/06:30am 14.1 12.5 11.5 84 1.4 N 11 13 6 7 1014.7 1014.3 0.0
23/06:00am 13.2 11.1 11.3 88 1.0 N 13 15 7 8 1014.2 1013.8 0.0
23/05:30am 12.9 11.2 11.2 89 0.9 N 11 13 6 7 1014.0 1013.6 0.0
23/05:00am 13.4 13.8 11.3 87 1.1 CALM 0 6 0 3 1013.6 1013.2 0.0
23/04:30am 14.0 12.5 12.0 88 1.1 N 11 13 6 7 1013.4 1013.0 0.0
23/04:00am 14.8 12.7 12.4 85 1.3 N 15 15 8 8 1013.3 1012.9 0.0
23/03:30am 15.1 13.4 12.6 85 1.4 N 13 15 7 8 1013.2 1012.8 0.0
23/03:00am 16.4 16.1 13.2 81 1.8 NNE 7 9 4 5 1013.2 1012.8 0.0
23/02:30am 16.6 15.8 13.0 79 2.0 ENE 9 11 5 6 1013.1 1012.7 0.0
23/02:00am 17.0 16.7 12.7 76 2.4 NE 6 9 3 5 1013.0 1012.6 0.0
23/01:30am 17.5 16.8 13.1 75 2.5 ENE 9 9 5 5 1013.0 1012.6 0.0
23/01:00am 17.2 17.3 11.5 69 3.1 S 2 7 1 4 1012.6 1012.2 0.0
23/12:30am 17.0 15.3 11.3 69 3.1 SW 11 13 6 7 1012.2 1011.8 0.0
23/12:00am 18.5 17.9 12.2 66 3.5 SW 7 13 4 7 1012.2 1011.8 0.0
 
Date/Time
EDT
Temp
°C
App
Temp
°C
Dew
Point
°C
Rel
Hum
%
Delta-T
°C
Wind Press
QNH
hPa
Press
MSL
hPa
Rain since
9am
mm
Dir  Spd
km/h
Gust
km/h
Spd
kts
Gust
kts
22/11:30pm 19.8 16.4 11.3 58 4.7 SSW 20 28 11 15 1011.8 1011.4 0.0
22/11:00pm 21.9 16.7 9.0 43 6.9 SW 26 39 14 21 1010.5 1010.1 0.0
22/10:30pm 27.1 21.1 -1.9 15 13.2 N 20 24 11 13 1009.1 1008.8 0.0
22/10:00pm 27.0 21.2 -1.2 15 13.0 N 19 33 10 18 1008.8 1008.5 0.0
22/09:30pm 26.8 21.0 -1.3 16 12.9 N 19 24 10 13 1008.7 1008.3 0.0
22/09:00pm 27.4 22.0 -1.1 15 13.2 N 17 20 9 11 1008.5 1008.1 0.0
22/08:30pm 28.2 21.9 -1.3 14 13.7 N 22 28 12 15 1008.3 1007.9 0.0
22/08:00pm 31.0 23.6 -3.8 10 15.8 N 26 32 14 17 1008.3 1007.9 0.0
22/07:30pm 32.1 24.6 -4.1 9 16.4 N 26 37 14 20 1008.1 1007.7 0.0
22/07:03pm 32.2 23.1 -3.3 10 16.4 N 35 54 19 29 1008.1 1007.7 0.0
22/07:00pm 32.5 23.0 -4.0 9 16.7 N 37 50 20 27 1008.0 1007.6 0.0
22/06:30pm 33.1 24.4 -3.1 9 16.9 N 33 48 18 26 1008.4 1008.0 0.0
22/06:00pm 33.3 24.4 -2.0 10 16.8 N 35 54 19 29 1008.8 1008.5 0.0
22/05:30pm 33.2 24.4 -1.3 11 16.6 N 35 48 19 26 1009.0 1008.7 0.0
22/05:04pm 32.0 22.0 -1.4 11 15.9 N 41 59 22 32 1009.3 1008.9 0.0
22/05:00pm 31.7 21.3 -1.7 11 15.8 N 43 59 23 32 1009.3 1008.9 0.0
22/04:31pm 32.5 32.5 29.3 83 2.4 N 50 69 27 37 1009.0 1008.7 0.0
22/04:30pm 32.7 32.7 28.9 80 2.8 N 48 63 26 34 1009.0 1008.7 0.0
22/04:00pm 31.9 25.8 18.4 44 8.8 N 48 69 26 37 1009.5 1009.1 0.0
22/03:30pm 32.7 24.9 9.7 24 13.2 N 41 61 22 33 1009.6 1009.2 0.0
22/03:03pm 31.9 24.5 8.5 23 13.1 N 37 56 20 30 1010.7 1010.3 0.0
22/03:00pm 32.2 24.5 8.8 23 13.2 N 39 56 21 30 1010.7 1010.3 0.0
22/02:30pm 31.6 23.9 7.1 21 13.4 N 37 56 20 30 1011.9 1011.5 0.0
22/02:08pm 30.6 22.3 6.1 21 13.1 N 39 57 21 31 1012.0 1011.6 0.0
22/02:00pm 30.5 22.2 6.2 21 13.0 N 39 52 21 28 1012.3 1011.9 0.0
22/01:30pm 30.3 20.9 5.2 20 13.2 N 44 69 24 37 1012.6 1012.2 0.0
22/01:00pm 29.6 21.7 6.1 22 12.5 N 37 50 20 27 1013.2 1012.8 0.0
22/12:43pm 29.3 22.4 6.4 23 12.2 N 32 52 17 28 1013.4 1013.0 0.0
22/12:30pm 29.0 21.4 5.6 22 12.3 N 35 48 19 26 1013.8 1013.4 0.0
22/12:00pm 27.6 18.6 4.8 23 11.7 NNE 41 54 22 29 1014.4 1014.0 0.0
22/11:30am 26.8 18.8 5.6 25 11.0 N 37 50 20 27 1014.7 1014.3 0.0
22/11:00am 26.0 18.9 6.5 28 10.2 NNE 33 43 18 23 1015.3 1014.9 0.0
22/10:30am 24.3 17.8 6.6 32 9.2 N 30 39 16 21 1015.7 1015.3 0.0
22/10:19am 24.4 17.3 5.6 29 9.6 NNE 32 50 17 27 1015.6 1015.2 0.0
22/10:00am 23.4 15.7 3.5 27 9.7 N 33 43 18 23 1015.5 1015.1 0.0
22/09:30am 21.8 15.8 3.6 30 8.8 N 24 33 13 18 1015.9 1015.5 0.0
22/09:00am 21.1 14.7 3.3 31 8.5 N 26 35 14 19 1015.7 1015.3 0.0
22/08:30am 18.4 13.4 3.8 38 6.9 N 19 30 10 16 1015.7 1015.3 0.0
22/08:00am 17.1 11.6 3.9 41 6.2 N 22 26 12 14 1015.8 1015.4 0.0
22/07:30am 15.8 9.4 3.4 43 5.7 N 26 30 14 16 1015.5 1015.1 0.0
22/07:00am 14.4 8.5 3.7 48 4.9 N 24 28 13 15 1015.5 1015.1 0.0
22/06:30am 13.3 8.2 4.1 53 4.2 N 20 24 11 13 1015.3 1014.9 0.0
22/06:00am 11.9 7.0 5.0 62 3.2 N 20 24 11 13 1015.1 1014.7 0.0
22/05:30am 10.9 7.0 5.5 69 2.5 N 15 19 8 10 1015.2 1014.8 0.0
22/05:00am 12.1 7.3 4.9 61 3.3 N 19 20 10 11 1015.3 1014.9 0.0
22/04:30am 10.5 6.9 6.9 78 1.7 N 15 17 8 9 1015.6 1015.2 0.0
22/04:00am 10.9 7.1 7.6 80 1.6 N 17 19 9 10 1016.0 1015.6 0.0
22/03:30am 11.1 7.5 8.3 83 1.4 N 17 19 9 10 1016.2 1015.9 0.0
22/03:00am 11.5 7.9 8.5 82 1.5 NNE 17 19 9 10 1016.5 1016.2 0.0
22/02:30am 12.5 9.0 8.9 79 1.8 N 17 20 9 11 1016.8 1016.5 0.0
22/02:00am 12.5 9.6 9.6 82 1.5 N 15 17 8 9 1017.1 1016.8 0.0
22/01:30am 12.6 10.2 9.9 83 1.4 N 13 17 7 9 1017.5 1017.2 0.0
22/01:00am 12.8 11.1 9.7 81 1.6 NW 9 13 5 7 1017.8 1017.5 0.0
22/12:30am 13.6 11.6 10.1 79 1.8 NW 11 13 6 7 1018.3 1017.9 0.0
22/12:00am 13.6 11.6 10.1 79 1.8 WNW 11 15 6 8 1018.6 1018.2 0.0
 
Date/Time
EDT
Temp
°C
App
Temp
°C
Dew
Point
°C
Rel
Hum
%
Delta-T
°C
Wind Press
QNH
hPa
Press
MSL
hPa
Rain since
9am
mm
Dir  Spd
km/h
Gust
km/h
Spd
kts
Gust
kts
21/11:30pm 14.0 11.7 10.6 80 1.8 WNW 13 17 7 9 1018.6 1018.2 0.0
21/11:00pm 14.1 12.1 10.3 78 2.0 WNW 11 15 6 8 1018.7 1018.3 0.0
21/10:30pm 15.7 14.2 10.6 71 2.7 WSW 9 9 5 5 1018.8 1018.4 0.0
21/10:00pm 16.7 15.9 11.1 69 3.0 SW 6 9 3 5 1018.7 1018.3 0.0
21/09:30pm 19.3 16.7 10.6 57 4.7 ESE 15 19 8 10 1018.4 1018.0 0.0
21/09:00pm 19.4 16.7 10.5 56 4.8 SE 15 17 8 9 1017.8 1017.5 0.0
21/08:30pm 18.6 16.9 11.1 61 4.1 S 11 15 6 8 1017.6 1017.3 0.0
21/08:00pm 19.9 17.2 10.5 54 5.1 SSE 15 19 8 10 1017.4 1017.1 0.0
21/07:30pm 21.3 17.4 9.6 47 6.3 SSE 20 26 11 14 1017.2 1016.9 0.0
21/07:00pm 22.7 18.7 8.9 41 7.4 SSE 20 28 11 15 1017.3 1017.0 0.0
21/06:30pm 23.3 18.1 7.2 35 8.4 SSE 24 30 13 16 1017.3 1017.0 0.0
21/06:00pm 23.5 18.0 5.8 32 9.0 SSE 24 33 13 18 1017.2 1016.9 0.0
21/05:30pm 23.0 17.6 6.2 33 8.6 SSE 24 37 13 20 1017.4 1017.1 0.0
21/05:00pm 23.9 20.1 5.6 30 9.3 SSE 15 26 8 14 1017.7 1017.4 0.0
21/04:30pm 24.2 20.3 3.6 26 10.1 E 13 28 7 15 1018.2 1017.8 0.0
21/04:00pm 23.8 20.1 2.5 25 10.2 ENE 11 17 6 9 1018.6 1018.2 0.0
21/03:30pm 23.3 19.6 2.3 25 10.0 SE 11 19 6 10 1018.9 1018.5 0.0
21/03:00pm 22.6 19.0 3.0 27 9.4 S 11 17 6 9 1019.4 1019.0 0.0
21/02:30pm 22.3 19.1 3.1 28 9.2 SW 9 17 5 9 1019.9 1019.5 0.0
21/02:00pm 20.9 18.0 4.5 34 8.0 SE 9 19 5 10 1020.2 1019.8 0.0
21/01:30pm 20.6 17.8 5.2 36 7.6 E 9 15 5 8 1020.5 1020.1 0.0
21/01:00pm 20.0 17.0 4.2 35 7.6 S 9 13 5 7 1021.2 1020.8 0.0
21/12:30pm 20.0 17.2 5.1 37 7.3 NE 9 13 5 7 1021.5 1021.1 0.0
21/12:00pm 19.6 17.0 5.9 40 6.8 N 9 15 5 8 1021.8 1021.4 0.0
21/11:30am 18.5 15.8 5.6 42 6.3 SSE 9 15 5 8 1021.7 1021.3 0.0
21/11:00am 17.3 14.8 6.6 49 5.3 ESE 9 15 5 8 1021.9 1021.5 0.0
21/10:30am 17.1 16.4 7.1 51 5.0 CALM 0 7 0 4 1022.1 1021.7 0.0
21/10:00am 15.8 14.1 8.5 62 3.7 WSW 7 11 4 6 1022.3 1021.9 0.0
21/09:30am 14.6 12.7 8.9 68 2.9 WSW 9 13 5 7 1022.1 1021.7 0.0
21/09:00am 13.7 11.7 8.5 71 2.6 NNW 9 13 5 7 1021.7 1021.3 0.0
21/08:30am 12.2 9.6 7.7 74 2.2 N 11 13 6 7 1021.5 1021.1 0.0
21/08:00am 9.8 6.3 7.3 84 1.2 N 15 19 8 10 1021.2 1020.8 0.0
21/07:30am 9.3 5.7 6.7 84 1.2 N 15 17 8 9 1020.7 1020.3 0.0
21/07:00am 7.8 4.0 6.0 88 0.8 N 15 17 8 9 1020.3 1019.9 0.0
21/06:30am 7.9 4.2 6.1 88 0.8 N 15 17 8 9 1019.8 1019.4 0.0
21/06:00am 7.8 4.4 6.0 88 0.8 N 13 15 7 8 1019.6 1019.2 0.0
21/05:30am 7.6 4.2 6.1 90 0.7 N 13 15 7 8 1019.4 1019.0 0.0
21/05:00am 8.9 6.1 6.8 87 1.0 NNW 11 15 6 8 1019.3 1018.9 0.0
21/04:30am 9.8 7.1 7.3 84 1.2 NNW 11 15 6 8 1019.3 1018.9 0.0
21/04:00am 9.8 6.3 7.3 84 1.2 WNW 15 19 8 10 1019.1 1018.7 0.0
21/03:30am 10.1 7.0 7.4 83 1.3 NW 13 17 7 9 1019.1 1018.7 0.0
21/03:00am 9.5 6.0 7.0 84 1.2 WNW 15 17 8 9 1019.0 1018.6 0.0
21/02:30am 10.6 7.5 7.3 80 1.6 WNW 13 17 7 9 1019.0 1018.6 0.0
21/02:00am 9.7 6.5 6.9 83 1.3 WNW 13 15 7 8 1019.2 1018.8 0.0
21/01:30am 9.8 6.2 6.8 81 1.4 WNW 15 17 8 9 1019.3 1018.9 0.0
21/01:00am 9.5 6.2 6.3 80 1.5 WNW 13 15 7 8 1019.4 1019.0 0.0
21/12:30am 9.7 6.4 6.3 79 1.6 WNW 13 15 7 8 1019.5 1019.1 0.0
21/12:00am 10.7 7.3 6.0 73 2.2 WNW 13 15 7 8 1019.3 1018.9 0.0
 
Date/Time
EDT
Temp
°C
App
Temp
°C
Dew
Point
°C
Rel
Hum
%
Delta-T
°C
Wind Press
QNH
hPa
Press
MSL
hPa
Rain since
9am
mm
Dir  Spd
km/h
Gust
km/h
Spd
kts
Gust
kts
20/11:30pm 11.4 8.0 5.8 68 2.6 WNW 13 15 7 8 1019.3 1018.9 0.0
20/11:00pm 11.2 7.8 6.1 71 2.4 WNW 13 13 7 7 1019.2 1018.8 0.0
20/10:30pm 12.9 9.7 6.7 66 3.0 WSW 13 17 7 9 1019.0 1018.6 0.0
20/10:00pm 13.0 12.5 9.3 78 1.9 SW 2 7 1 4 1018.6 1018.2 0.0
20/09:30pm 14.1 12.0 9.6 74 2.3 S 11 15 6 8 1018.2 1017.8 0.0
20/09:00pm 14.7 11.8 9.7 72 2.6 S 15 19 8 10 1017.6 1017.3 0.0
20/08:30pm 15.5 12.6 8.0 61 3.8 SSW 13 15 7 8 1017.0 1016.7 0.0
20/08:00pm 16.7 13.8 8.3 57 4.3 S 13 17 7 9 1016.5 1016.2 0.0
20/07:30pm 17.7 13.9 8.9 56 4.6 SSE 19 26 10 14 1016.0 1015.6 0.0
20/07:00pm 17.6 13.1 8.7 56 4.6 SSE 22 30 12 16 1015.6 1015.2 0.0
20/06:30pm 17.7 13.2 8.4 54 4.8 SSE 22 28 12 15 1015.2 1014.8 0.0
20/06:00pm 17.9 13.1 8.7 55 4.8 S 24 30 13 16 1014.9 1014.5 0.0
20/05:30pm 18.2 13.1 9.3 56 4.7 S 26 35 14 19 1014.5 1014.1 0.0
20/05:00pm 17.9 12.1 9.6 58 4.4 SSE 30 37 16 20 1014.1 1013.7 0.0
20/04:30pm 19.5 14.3 8.9 50 5.6 SSE 26 32 14 17 1013.7 1013.3 0.0
20/04:00pm 21.1 13.3 3.0 30 8.6 WSW 33 46 18 25 1013.4 1013.0 0.0
20/03:30pm 21.0 14.6 5.3 36 7.8 SSW 28 41 15 22 1013.4 1013.0 0.0
20/03:00pm 21.2 14.0 5.0 34 8.0 SW 32 43 17 23 1013.5 1013.1 0.0
20/02:30pm 20.0 12.4 4.0 34 7.7 SW 33 44 18 24 1013.5 1013.1 0.0
20/02:00pm 20.5 13.2 2.6 30 8.4 SW 30 39 16 21 1013.4 1013.0 0.0
20/01:30pm 19.1 11.7 4.9 39 6.9 SW 33 44 18 24 1013.7 1013.3 0.0
20/01:19pm 18.6 11.9 5.6 42 6.4 WSW 30 48 16 26 1013.6 1013.2 0.0
20/01:00pm 18.3 10.8 6.5 46 5.9 WSW 35 50 19 27 1013.7 1013.3 0.0
20/12:30pm 17.4 10.3 5.7 46 5.7 WSW 32 48 17 26 1013.7 1013.3 0.0
20/12:00pm 18.0 11.1 6.6 47 5.7 SW 32 44 17 24 1013.8 1013.4 0.0
20/11:30am 17.6 9.9 5.5 45 5.9 SW 35 46 19 25 1013.7 1013.3 0.0

Latest Capital City Observations: Canberra | Sydney | Melbourne | Brisbane | Adelaide | Perth | Hobart | Darwin

Other Formats:

Comma delimited format used in spreadsheet applications
http://www.bom.gov.au/fwo/IDV60901/IDV60901.94866.axf

JavaScript Object Notation format (JSON) in row-major order
http://www.bom.gov.au/fwo/IDV60901/IDV60901.94866.json